createdAt,value
2022-12-23T00:01:35.155Z,19.60
2022-12-23T00:04:03.218Z,19.61
2022-12-23T00:06:31.401Z,19.59
2022-12-23T00:08:59.565Z,19.60
2022-12-23T00:11:28.697Z,19.59
2022-12-23T00:14:20.379Z,19.59
2022-12-23T00:16:54.217Z,19.59
2022-12-23T00:19:22.202Z,19.58
2022-12-23T00:21:50.163Z,19.58
2022-12-23T00:24:18.183Z,19.57
2022-12-23T00:26:46.239Z,19.58
2022-12-23T00:29:14.319Z,19.57
2022-12-23T00:31:42.366Z,19.57
2022-12-23T00:34:12.358Z,19.56
2022-12-23T00:36:40.918Z,19.58
2022-12-23T00:39:29.730Z,19.57
2022-12-23T00:42:15.034Z,19.57
2022-12-23T00:44:43.085Z,19.55
2022-12-23T00:47:31.072Z,19.57
2022-12-23T00:49:59.579Z,19.56
2022-12-23T00:52:28.214Z,19.56
2022-12-23T00:54:56.289Z,19.55
2022-12-23T00:57:24.299Z,19.56
2022-12-23T00:59:52.261Z,19.55
2022-12-23T01:02:52.323Z,19.53
2022-12-23T01:05:39.779Z,19.55
2022-12-23T01:08:10.818Z,19.55
2022-12-23T01:10:40.282Z,19.55
2022-12-23T01:13:08.515Z,19.54
2022-12-23T01:15:36.503Z,19.54
2022-12-23T01:18:04.553Z,19.53
2022-12-23T01:20:34.014Z,19.54
2022-12-23T01:23:02.214Z,19.54
2022-12-23T01:25:31.367Z,19.52
2022-12-23T01:27:59.425Z,19.54
2022-12-23T01:30:30.400Z,19.54
2022-12-23T01:32:58.810Z,19.52
2022-12-23T01:35:26.847Z,19.53
2022-12-23T01:37:56.239Z,19.53
2022-12-23T01:40:24.248Z,19.52
2022-12-23T01:42:51.360Z,19.53
2022-12-23T01:45:25.893Z,19.52
2022-12-23T01:47:58.608Z,19.52
2022-12-23T01:50:31.341Z,19.52
2022-12-23T01:53:08.525Z,19.52
2022-12-23T01:55:42.515Z,19.51
2022-12-23T01:58:14.620Z,19.52
2022-12-23T02:01:01.293Z,19.50
2022-12-23T02:03:45.228Z,19.50
2022-12-23T02:06:35.952Z,19.51
2022-12-23T02:09:20.796Z,19.51
2022-12-23T02:12:30.843Z,19.51
2022-12-23T02:15:44.642Z,19.49
2022-12-23T02:18:33.663Z,19.50
2022-12-23T02:21:28.079Z,19.49
2022-12-23T02:24:49.671Z,19.49
2022-12-23T02:27:24.918Z,19.49
2022-12-23T02:30:09.236Z,19.48
2022-12-23T02:32:49.783Z,19.48
2022-12-23T02:35:27.101Z,19.49
2022-12-23T02:38:02.166Z,19.48
2022-12-23T02:40:39.812Z,19.48
2022-12-23T02:43:15.611Z,19.46
2022-12-23T02:45:50.299Z,19.47
2022-12-23T02:48:25.213Z,19.46
2022-12-23T02:50:55.768Z,19.46
2022-12-23T02:53:30.438Z,19.47
2022-12-23T02:56:00.434Z,19.44
2022-12-23T02:58:33.187Z,19.45
2022-12-23T03:01:03.395Z,19.45
2022-12-23T03:03:33.647Z,19.45
2022-12-23T03:06:03.487Z,19.46
2022-12-23T03:08:35.741Z,19.45
2022-12-23T03:11:05.014Z,19.45
2022-12-23T03:13:49.817Z,19.46
2022-12-23T03:16:24.779Z,19.44
2022-12-23T03:19:07.552Z,19.45
2022-12-23T03:21:41.460Z,19.45
2022-12-23T03:24:22.335Z,19.43
2022-12-23T03:26:58.739Z,19.44
2022-12-23T03:29:37.272Z,19.43
2022-12-23T03:32:06.547Z,19.44
2022-12-23T03:34:40.599Z,19.43
2022-12-23T03:37:12.096Z,19.42
2022-12-23T03:39:46.667Z,19.43
2022-12-23T03:42:23.685Z,19.43
2022-12-23T03:45:27.929Z,19.42
2022-12-23T03:47:45.683Z,19.43
2022-12-23T03:50:17.800Z,19.42
2022-12-23T03:52:51.353Z,19.43
2022-12-23T03:55:23.226Z,19.42
2022-12-23T03:58:13.305Z,19.42
2022-12-23T04:00:48.716Z,19.40
2022-12-23T04:03:23.098Z,19.40
2022-12-23T04:05:56.786Z,19.40
2022-12-23T04:08:29.610Z,19.41
2022-12-23T04:10:58.305Z,19.41
2022-12-23T04:13:27.682Z,19.40
2022-12-23T04:15:56.092Z,19.40
2022-12-23T04:18:24.119Z,19.39
2022-12-23T04:20:53.492Z,19.39
2022-12-23T04:23:21.475Z,19.37
2022-12-23T04:25:49.602Z,19.38
2022-12-23T04:28:18.279Z,19.38
2022-12-23T04:30:46.304Z,19.37
2022-12-23T04:33:14.558Z,19.37
2022-12-23T04:35:42.598Z,19.37
2022-12-23T04:38:11.997Z,19.37
2022-12-23T04:40:39.990Z,19.37
2022-12-23T04:43:07.971Z,19.38
2022-12-23T04:45:35.935Z,19.37
2022-12-23T04:48:03.927Z,19.37
2022-12-23T04:50:31.942Z,19.38
2022-12-23T04:53:02.249Z,19.37
2022-12-23T04:55:31.672Z,19.34
2022-12-23T04:57:59.694Z,19.36
2022-12-23T05:00:32.733Z,19.36
2022-12-23T05:03:05.509Z,19.36
2022-12-23T05:05:33.607Z,19.36
2022-12-23T05:08:04.662Z,19.36
2022-12-23T05:10:34.139Z,19.34
2022-12-23T05:13:02.189Z,19.34
2022-12-23T05:15:33.053Z,19.34
2022-12-23T05:18:01.133Z,19.34
2022-12-23T05:20:29.083Z,19.34
2022-12-23T05:22:57.250Z,19.34
2022-12-23T05:25:25.167Z,19.34
2022-12-23T05:27:54.570Z,19.34
2022-12-23T05:30:22.545Z,19.34
2022-12-23T05:32:54.344Z,19.33
2022-12-23T05:35:23.228Z,19.33
2022-12-23T05:37:51.212Z,19.34
2022-12-23T05:40:23.549Z,19.34
2022-12-23T05:42:52.464Z,19.33
2022-12-23T05:45:24.338Z,19.34
2022-12-23T05:47:52.268Z,19.33
2022-12-23T05:50:20.268Z,19.33
2022-12-23T05:52:48.306Z,19.33
2022-12-23T05:55:16.436Z,19.32
2022-12-23T05:57:44.754Z,19.33
2022-12-23T06:00:14.054Z,19.34
2022-12-23T06:02:47.195Z,19.32
2022-12-23T06:05:18.092Z,19.33
2022-12-23T06:07:46.225Z,19.34
2022-12-23T06:10:14.159Z,19.34
2022-12-23T06:12:42.228Z,19.33
2022-12-23T06:15:10.952Z,19.34
2022-12-23T06:17:38.981Z,19.36
2022-12-23T06:20:18.103Z,19.36
2022-12-23T06:22:48.167Z,19.37
2022-12-23T06:25:16.501Z,19.37
2022-12-23T06:27:44.511Z,19.38
2022-12-23T06:30:13.043Z,19.36
2022-12-23T06:32:41.032Z,19.38
2022-12-23T06:35:11.236Z,19.39
2022-12-23T06:37:39.244Z,19.40
2022-12-23T06:40:08.313Z,19.41
2022-12-23T06:42:36.349Z,19.41
2022-12-23T06:45:05.280Z,19.42
2022-12-23T06:47:33.272Z,19.43
2022-12-23T06:50:01.237Z,19.43
2022-12-23T06:52:30.618Z,19.44
2022-12-23T06:54:58.565Z,19.44
2022-12-23T06:57:26.607Z,19.45
2022-12-23T06:59:54.540Z,19.45
2022-12-23T07:02:22.639Z,19.45
2022-12-23T07:04:50.739Z,19.46
2022-12-23T07:07:18.706Z,19.47
2022-12-23T07:09:48.068Z,19.48
2022-12-23T07:12:16.175Z,19.49
2022-12-23T07:14:44.156Z,19.50
2022-12-23T07:17:12.198Z,19.51
2022-12-23T07:19:41.668Z,19.51
2022-12-23T07:22:10.827Z,19.53
2022-12-23T07:24:38.810Z,19.52
2022-12-23T07:27:08.180Z,19.53
2022-12-23T07:29:36.144Z,19.54
2022-12-23T07:32:04.666Z,19.54
2022-12-23T07:34:32.870Z,19.55
2022-12-23T07:37:03.313Z,19.57
2022-12-23T07:39:31.348Z,19.58
2022-12-23T07:42:25.125Z,19.57
2022-12-23T07:44:48.572Z,19.59
2022-12-23T07:47:16.955Z,19.61
2022-12-23T07:49:44.909Z,19.62
2022-12-23T07:52:16.303Z,19.62
2022-12-23T07:54:44.672Z,19.63
2022-12-23T07:57:12.627Z,19.64
2022-12-23T07:59:40.663Z,19.65
2022-12-23T08:02:11.315Z,19.65
2022-12-23T08:04:45.597Z,19.66
2022-12-23T08:07:14.218Z,19.67
2022-12-23T08:09:42.519Z,19.67
2022-12-23T08:12:10.498Z,19.69
2022-12-23T08:14:38.536Z,19.70
2022-12-23T08:17:06.577Z,19.70
2022-12-23T08:19:36.015Z,19.71
2022-12-23T08:22:04.541Z,19.71
2022-12-23T08:24:32.508Z,19.73
2022-12-23T08:27:02.811Z,19.74
2022-12-23T08:29:36.049Z,19.75
2022-12-23T08:32:07.918Z,19.75
2022-12-23T08:34:37.611Z,19.76
2022-12-23T08:37:05.632Z,19.78
2022-12-23T08:39:33.787Z,19.79
2022-12-23T08:42:01.992Z,19.80
2022-12-23T08:44:31.071Z,19.80
2022-12-23T08:47:01.337Z,19.82
2022-12-23T08:49:29.409Z,19.83
2022-12-23T08:51:58.808Z,19.85
2022-12-23T08:54:28.258Z,19.85
2022-12-23T08:56:56.245Z,19.86
2022-12-23T08:59:26.795Z,19.87
2022-12-23T09:01:54.975Z,19.87
2022-12-23T09:04:23.098Z,19.87
2022-12-23T09:06:51.055Z,19.89
2022-12-23T09:09:20.477Z,19.89
2022-12-23T09:11:48.480Z,19.91
2022-12-23T09:14:16.555Z,19.91
2022-12-23T09:16:44.540Z,19.92
2022-12-23T09:19:12.562Z,19.93
2022-12-23T09:21:40.571Z,19.93
2022-12-23T09:24:08.635Z,19.95
2022-12-23T09:26:38.029Z,19.95
2022-12-23T09:29:06.078Z,19.96
2022-12-23T09:31:37.271Z,19.97
2022-12-23T09:34:06.726Z,19.97
2022-12-23T09:36:34.873Z,19.98
2022-12-23T09:39:03.200Z,19.98
2022-12-23T09:41:47.561Z,20.00
2022-12-23T09:44:36.688Z,20.01
2022-12-23T09:47:07.243Z,20.02
2022-12-23T09:49:35.940Z,20.03
2022-12-23T09:52:06.794Z,20.02
2022-12-23T09:54:42.857Z,20.05
2022-12-23T09:57:21.894Z,20.05
2022-12-23T10:00:03.011Z,20.06
2022-12-23T10:02:44.268Z,20.06
2022-12-23T10:05:26.077Z,20.07
2022-12-23T10:07:59.245Z,20.07
2022-12-23T10:10:34.623Z,20.08
2022-12-23T10:13:07.802Z,20.07
2022-12-23T10:15:39.997Z,20.09
2022-12-23T10:18:13.177Z,20.08
2022-12-23T10:20:48.419Z,20.09
2022-12-23T10:23:18.989Z,20.08
2022-12-23T10:25:51.815Z,20.08
2022-12-23T10:28:21.617Z,20.08
2022-12-23T10:31:39.360Z,20.06
2022-12-23T10:33:57.540Z,20.06
2022-12-23T10:36:35.556Z,20.07
2022-12-23T10:39:13.877Z,20.06
2022-12-23T10:41:49.372Z,20.06
2022-12-23T10:44:49.676Z,20.07
2022-12-23T10:47:26.416Z,20.06
2022-12-23T10:50:06.097Z,20.05
2022-12-23T10:52:38.617Z,20.05
2022-12-23T10:55:07.378Z,20.02
2022-12-23T10:57:35.435Z,20.05
2022-12-23T11:00:17.782Z,20.04
2022-12-23T11:02:59.348Z,20.03
2022-12-23T11:05:31.419Z,20.03
2022-12-23T11:08:00.092Z,20.02
2022-12-23T11:10:33.317Z,20.01
2022-12-23T11:13:01.895Z,20.03
2022-12-23T11:15:35.857Z,20.01
2022-12-23T11:18:08.030Z,20.01
2022-12-23T11:20:37.631Z,20.01
2022-12-23T11:23:07.834Z,20.01
2022-12-23T11:25:38.629Z,20.00
2022-12-23T11:28:13.597Z,20.01
2022-12-23T11:30:56.486Z,20.01
2022-12-23T11:33:27.416Z,20.00
2022-12-23T11:36:04.412Z,20.00
2022-12-23T11:38:33.215Z,19.99
2022-12-23T11:41:01.782Z,20.00
2022-12-23T11:43:30.385Z,19.99
2022-12-23T11:46:26.279Z,19.99
2022-12-23T11:49:07.254Z,19.99
2022-12-23T11:51:35.216Z,19.99
2022-12-23T11:54:04.077Z,19.99
2022-12-23T11:56:37.863Z,19.97
2022-12-23T11:59:09.227Z,19.98
2022-12-23T12:01:39.914Z,19.97
2022-12-23T12:04:10.306Z,19.97
2022-12-23T12:06:49.622Z,19.97
2022-12-23T12:09:20.109Z,19.96
2022-12-23T12:11:50.463Z,19.96
2022-12-23T12:14:24.116Z,19.96
2022-12-23T12:17:01.861Z,19.96
2022-12-23T12:19:33.059Z,19.94
2022-12-23T12:22:07.180Z,19.94
2022-12-23T12:24:42.668Z,19.93
2022-12-23T12:27:13.042Z,19.92
2022-12-23T12:29:45.794Z,19.91
2022-12-23T12:32:20.594Z,19.93
2022-12-23T12:34:55.992Z,19.92
2022-12-23T12:37:34.301Z,19.91
2022-12-23T12:40:08.570Z,19.92
2022-12-23T12:42:41.314Z,19.92
2022-12-23T12:45:18.116Z,19.90
2022-12-23T12:48:02.300Z,19.91
2022-12-23T12:50:41.632Z,19.89
2022-12-23T12:53:15.637Z,19.89
2022-12-23T12:55:47.907Z,19.88
2022-12-23T12:58:20.680Z,19.88
2022-12-23T13:00:59.302Z,19.89
2022-12-23T13:03:46.112Z,19.89
2022-12-23T13:06:23.123Z,19.89
2022-12-23T13:09:03.367Z,19.88
2022-12-23T13:11:45.200Z,19.89
2022-12-23T13:14:25.868Z,19.89
2022-12-23T13:17:03.609Z,19.88
2022-12-23T13:19:43.519Z,19.88
2022-12-23T13:22:16.623Z,19.89
2022-12-23T13:24:57.615Z,19.89
2022-12-23T13:27:32.787Z,19.89
2022-12-23T13:30:08.024Z,19.89
2022-12-23T13:33:02.215Z,19.91
2022-12-23T13:35:41.855Z,19.92
2022-12-23T13:38:26.795Z,19.91
2022-12-23T13:41:02.696Z,19.92
2022-12-23T13:43:41.797Z,19.92
2022-12-23T13:46:16.132Z,19.92
2022-12-23T13:48:53.175Z,19.94
2022-12-23T13:51:32.137Z,19.93
2022-12-23T13:54:07.087Z,19.94
2022-12-23T13:56:43.244Z,19.95
2022-12-23T13:59:12.970Z,19.96
2022-12-23T14:01:47.472Z,19.96
2022-12-23T14:04:35.811Z,19.97
2022-12-23T14:07:20.128Z,19.99
2022-12-23T14:09:53.222Z,20.00
2022-12-23T14:12:28.011Z,20.00
2022-12-23T14:15:25.582Z,20.01
2022-12-23T14:18:05.009Z,20.01
2022-12-23T14:20:48.399Z,20.03
2022-12-23T14:23:33.494Z,20.03
2022-12-23T14:26:38.141Z,20.04
2022-12-23T14:29:21.844Z,20.07
2022-12-23T14:31:57.509Z,20.05
2022-12-23T14:34:31.764Z,20.06
2022-12-23T14:37:32.690Z,20.08
2022-12-23T14:40:40.595Z,20.09
2022-12-23T14:43:27.499Z,20.10
2022-12-23T14:45:56.839Z,20.11
2022-12-23T14:49:38.232Z,20.12
2022-12-23T14:52:36.798Z,20.13
2022-12-23T14:55:49.985Z,20.14
2022-12-23T14:58:59.348Z,20.14
2022-12-23T15:01:40.854Z,20.15
2022-12-23T15:04:18.967Z,20.17
2022-12-23T15:06:49.367Z,20.18
2022-12-23T15:09:25.577Z,20.17
2022-12-23T15:11:55.671Z,20.19
2022-12-23T15:14:32.998Z,20.19
2022-12-23T15:17:16.496Z,20.19
2022-12-23T15:19:47.097Z,20.21
2022-12-23T15:22:23.772Z,20.22
2022-12-23T15:24:55.680Z,20.24
2022-12-23T15:27:28.720Z,20.24
2022-12-23T15:29:59.399Z,20.25
2022-12-23T15:32:28.976Z,20.27
2022-12-23T15:35:02.209Z,20.26
2022-12-23T15:37:32.395Z,20.27
2022-12-23T15:40:09.919Z,20.29
2022-12-23T15:42:39.830Z,20.30
2022-12-23T15:45:30.851Z,20.29
2022-12-23T15:47:58.920Z,20.30
2022-12-23T15:50:28.406Z,20.31
2022-12-23T15:53:05.532Z,20.32
2022-12-23T15:55:35.738Z,20.33
2022-12-23T15:58:05.404Z,20.34
2022-12-23T16:00:40.671Z,20.33
2022-12-23T16:03:24.769Z,20.34
2022-12-23T16:05:53.066Z,20.35
2022-12-23T16:08:29.888Z,20.35
2022-12-23T16:11:06.531Z,20.35
2022-12-23T16:13:35.148Z,20.36
2022-12-23T16:16:20.905Z,20.34
2022-12-23T16:18:49.009Z,20.37
2022-12-23T16:21:17.041Z,20.37
2022-12-23T16:23:51.667Z,20.38
2022-12-23T16:26:21.210Z,20.40
2022-12-23T16:28:52.739Z,20.40
2022-12-23T16:31:22.922Z,20.40
2022-12-23T16:33:52.643Z,20.41
2022-12-23T16:36:32.679Z,20.41
2022-12-23T16:39:06.812Z,20.41
2022-12-23T16:41:35.579Z,20.42
2022-12-23T16:44:03.993Z,20.43
2022-12-23T16:46:38.280Z,20.43
2022-12-23T16:49:11.063Z,20.44
2022-12-23T16:51:40.728Z,20.44
2022-12-23T16:54:15.530Z,20.45
2022-12-23T16:56:43.551Z,20.45
2022-12-23T16:59:11.469Z,20.45
2022-12-23T17:01:43.965Z,20.46
2022-12-23T17:04:12.492Z,20.46
2022-12-23T17:06:40.839Z,20.46
2022-12-23T17:09:11.169Z,20.48
2022-12-23T17:11:42.712Z,20.48
2022-12-23T17:14:17.166Z,20.48
2022-12-23T17:16:47.612Z,20.49
2022-12-23T17:19:16.787Z,20.50
2022-12-23T17:21:48.397Z,20.49
2022-12-23T17:24:23.476Z,20.50
2022-12-23T17:26:52.263Z,20.51
2022-12-23T17:29:20.835Z,20.52
2022-12-23T17:31:51.613Z,20.52
2022-12-23T17:34:21.800Z,20.53
2022-12-23T17:36:51.112Z,20.53
2022-12-23T17:39:19.892Z,20.54
2022-12-23T17:41:48.276Z,20.55
2022-12-23T17:44:18.334Z,20.55
2022-12-23T17:46:47.364Z,20.55
2022-12-23T17:49:16.810Z,20.55
2022-12-23T17:51:44.939Z,20.57
2022-12-23T17:54:22.659Z,20.59
2022-12-23T17:56:53.673Z,20.59
2022-12-23T17:59:21.899Z,20.59
2022-12-23T18:01:50.232Z,20.60
2022-12-23T18:04:22.169Z,20.63
2022-12-23T18:06:53.112Z,20.62
2022-12-23T18:09:21.348Z,20.62
2022-12-23T18:11:49.506Z,20.63
2022-12-23T18:14:24.765Z,20.64
2022-12-23T18:16:52.803Z,20.65
2022-12-23T18:19:25.438Z,20.65
2022-12-23T18:21:53.990Z,20.66
2022-12-23T18:24:21.936Z,20.66
2022-12-23T18:26:49.948Z,20.68
2022-12-23T18:29:18.583Z,20.68
2022-12-23T18:31:51.362Z,20.70
2022-12-23T18:34:20.764Z,20.69
2022-12-23T18:36:51.713Z,20.71
2022-12-23T18:39:23.230Z,20.72
2022-12-23T18:41:51.288Z,20.73
2022-12-23T18:44:20.590Z,20.73
2022-12-23T18:46:49.030Z,20.75
2022-12-23T18:49:17.202Z,20.74
2022-12-23T18:51:45.431Z,20.75
2022-12-23T18:54:16.967Z,20.76
2022-12-23T18:56:45.284Z,20.76
2022-12-23T18:59:22.549Z,20.78
2022-12-23T19:01:52.575Z,20.77
2022-12-23T19:04:20.656Z,20.79
2022-12-23T19:06:48.740Z,20.79
2022-12-23T19:09:20.847Z,20.80
2022-12-23T19:11:50.760Z,20.81
2022-12-23T19:14:18.846Z,20.82
2022-12-23T19:16:51.577Z,20.82
2022-12-23T19:19:20.333Z,20.84
2022-12-23T19:21:48.474Z,20.83
2022-12-23T19:24:16.607Z,20.85
2022-12-23T19:26:45.964Z,20.85
2022-12-23T19:29:13.974Z,20.85
2022-12-23T19:31:44.922Z,20.87
2022-12-23T19:34:16.378Z,20.88
2022-12-23T19:36:44.703Z,20.88
2022-12-23T19:39:16.317Z,20.88
2022-12-23T19:41:46.463Z,20.89
2022-12-23T19:44:14.544Z,20.89
2022-12-23T19:46:45.139Z,20.89
2022-12-23T19:49:19.515Z,20.91
2022-12-23T19:51:48.786Z,20.90
2022-12-23T19:54:17.146Z,20.91
2022-12-23T19:56:47.119Z,20.93
2022-12-23T19:59:15.054Z,20.93
2022-12-23T20:01:43.205Z,20.94
2022-12-23T20:04:12.436Z,20.95
2022-12-23T20:06:42.744Z,20.95
2022-12-23T20:09:14.371Z,20.95
2022-12-23T20:11:44.231Z,20.95
2022-12-23T20:14:18.071Z,20.98
2022-12-23T20:16:48.375Z,20.96
2022-12-23T20:19:17.033Z,20.98
2022-12-23T20:21:46.351Z,20.99
2022-12-23T20:24:15.194Z,20.99
2022-12-23T20:26:43.577Z,21.00
2022-12-23T20:29:11.652Z,21.00
2022-12-23T20:31:41.385Z,21.01
2022-12-23T20:34:14.535Z,21.03
2022-12-23T20:36:42.622Z,21.04
2022-12-23T20:39:10.708Z,21.02
2022-12-23T20:41:38.719Z,21.04
2022-12-23T20:44:33.767Z,21.06
2022-12-23T20:46:56.299Z,21.05
2022-12-23T20:49:24.378Z,21.07
2022-12-23T20:51:54.893Z,21.07
2022-12-23T20:54:27.882Z,21.07
2022-12-23T20:57:00.121Z,21.09
2022-12-23T20:59:28.136Z,21.08
2022-12-23T21:01:59.081Z,21.08
2022-12-23T21:04:27.467Z,21.09
2022-12-23T21:06:55.514Z,21.09
2022-12-23T21:09:23.492Z,21.10
2022-12-23T21:11:51.526Z,21.10
2022-12-23T21:14:19.760Z,21.11
2022-12-23T21:16:47.867Z,21.10
2022-12-23T21:19:20.482Z,21.11
2022-12-23T21:21:49.259Z,21.11
2022-12-23T21:24:18.062Z,21.12
2022-12-23T21:26:56.295Z,21.10
2022-12-23T21:29:25.564Z,21.11
2022-12-23T21:31:55.172Z,21.10
2022-12-23T21:34:25.055Z,21.11
2022-12-23T21:36:53.271Z,21.10
2022-12-23T21:39:21.268Z,21.10
2022-12-23T21:41:51.403Z,21.10
2022-12-23T21:44:19.642Z,21.09
2022-12-23T21:46:47.749Z,21.09
2022-12-23T21:49:15.904Z,21.08
2022-12-23T21:51:45.304Z,21.09
2022-12-23T21:54:13.613Z,21.08
2022-12-23T21:56:42.392Z,21.08
2022-12-23T21:59:15.007Z,21.09
2022-12-23T22:01:43.782Z,21.07
2022-12-23T22:04:14.144Z,21.08
2022-12-23T22:06:44.623Z,21.07
2022-12-23T22:09:16.687Z,21.07
2022-12-23T22:11:45.430Z,21.07
2022-12-23T22:14:19.487Z,21.05
2022-12-23T22:16:47.749Z,21.07
2022-12-23T22:19:16.089Z,21.05
2022-12-23T22:21:44.073Z,21.05
2022-12-23T22:24:12.223Z,21.05
2022-12-23T22:26:42.030Z,21.04
2022-12-23T22:29:11.630Z,21.02
2022-12-23T22:31:42.981Z,21.04
2022-12-23T22:34:14.463Z,21.04
2022-12-23T22:36:42.600Z,21.04
2022-12-23T22:39:19.467Z,21.01
2022-12-23T22:41:50.647Z,21.03
2022-12-23T22:44:19.299Z,21.01
2022-12-23T22:46:47.746Z,21.01
2022-12-23T22:49:16.635Z,21.00
2022-12-23T22:51:45.639Z,21.00
2022-12-23T22:54:14.210Z,20.99
2022-12-23T22:56:42.240Z,20.99
2022-12-23T22:59:19.436Z,20.99
2022-12-23T23:01:47.578Z,20.97
2022-12-23T23:04:15.568Z,20.98
2022-12-23T23:06:43.718Z,20.99
2022-12-23T23:09:15.135Z,20.97
2022-12-23T23:11:44.294Z,20.98
2022-12-23T23:14:14.222Z,20.96
2022-12-23T23:16:42.211Z,20.96
2022-12-23T23:19:12.221Z,20.96
2022-12-23T23:21:40.343Z,20.96
2022-12-23T23:24:09.283Z,20.95
2022-12-23T23:26:37.270Z,20.95
2022-12-23T23:29:05.338Z,20.94
2022-12-23T23:31:43.559Z,20.94
2022-12-23T23:34:12.221Z,20.94
2022-12-23T23:36:40.625Z,20.92
2022-12-23T23:39:09.042Z,20.93
2022-12-23T23:41:37.127Z,20.92
2022-12-23T23:44:05.275Z,20.92
2022-12-23T23:46:35.449Z,20.92
2022-12-23T23:49:04.009Z,20.91
2022-12-23T23:51:31.943Z,20.91
2022-12-23T23:53:59.909Z,20.91
2022-12-23T23:56:32.346Z,20.91
2022-12-23T23:59:04.044Z,20.90
